Terminal Aerodrome Forecast
Issued by NWS Atlanta, GA

Home | Current Version | Previous Version | Text Only | Print | Product List | Glossary On
Versions: 1 2 3 4 5 6 7 8 9 10 11 12 13 14 15 16 17 18 19 20 21 22 23 24 25 26 27 28 29 30 31 32 33 34 35 36 37
497
FTUS42 KFFC 130545
TAFATL
TAF
KATL 130545Z 1306/1412 34014G22KT P6SM SKC
     FM131600 33011G17KT P6SM SKC
     FM140200 34007KT P6SM FEW200
     FM140600 02004KT P6SM SCT150=

USA.gov is the U.S. government's official web portal to all federal, state and local government web resources and services.